createdAt,value
2019-02-05T00:00:17.857Z,5.57
2019-02-05T00:02:46.796Z,5.20
2019-02-05T00:05:17.184Z,5.77
2019-02-05T00:07:46.185Z,5.90
2019-02-05T00:10:15.867Z,5.90
2019-02-05T00:12:44.787Z,5.37
2019-02-05T00:15:14.333Z,5.80
2019-02-05T00:17:43.909Z,6.20
2019-02-05T00:20:14.283Z,5.50
2019-02-05T00:22:43.352Z,6.30
2019-02-05T00:25:12.542Z,6.17
2019-02-05T00:27:41.318Z,5.93
2019-02-05T00:30:29.615Z,6.43
2019-02-05T00:32:58.438Z,6.77
2019-02-05T00:35:27.939Z,6.90
2019-02-05T00:37:57.084Z,6.33
2019-02-05T00:40:26.613Z,6.50
2019-02-05T00:42:55.565Z,6.70
2019-02-05T00:45:26.763Z,6.83
2019-02-05T00:47:56.563Z,6.57
2019-02-05T00:50:25.457Z,6.97
2019-02-05T00:52:54.374Z,6.73
2019-02-05T00:55:23.953Z,6.30
2019-02-05T00:57:53.118Z,6.60
2019-02-05T01:00:23.148Z,6.33
2019-02-05T01:02:52.293Z,7.93
2019-02-05T01:05:21.473Z,7.10
2019-02-05T01:07:52.412Z,6.83
2019-02-05T01:10:23.444Z,7.83
2019-02-05T01:12:53.019Z,8.03
2019-02-05T01:15:24.280Z,7.50
2019-02-05T01:17:53.852Z,7.60
2019-02-05T01:20:23.593Z,8.07
2019-02-05T01:22:52.775Z,8.30
2019-02-05T01:25:22.531Z,8.47
2019-02-05T01:27:52.099Z,7.17
2019-02-05T01:30:23.489Z,8.40
2019-02-05T01:32:52.954Z,7.60
2019-02-05T01:35:22.867Z,9.03
2019-02-05T01:37:52.803Z,8.40
2019-02-05T01:40:24.437Z,8.33
2019-02-05T01:42:54.127Z,9.00
2019-02-05T01:45:24.364Z,9.70
2019-02-05T01:47:53.654Z,8.40
2019-02-05T01:50:25.474Z,9.60
2019-02-05T01:52:54.610Z,9.00
2019-02-05T01:55:24.356Z,9.37
2019-02-05T01:57:53.624Z,9.10
2019-02-05T02:00:25.293Z,9.80
2019-02-05T02:02:54.336Z,9.43
2019-02-05T02:05:23.637Z,10.07
2019-02-05T02:07:52.695Z,10.10
2019-02-05T02:10:24.094Z,10.00
2019-02-05T02:12:53.519Z,9.30
2019-02-05T02:15:22.449Z,9.37
2019-02-05T02:17:51.449Z,8.70
2019-02-05T02:20:21.641Z,8.83
2019-02-05T02:22:50.922Z,11.37
2019-02-05T02:25:20.116Z,10.00
2019-02-05T02:27:50.338Z,9.33
2019-02-05T02:30:23.250Z,10.60
2019-02-05T02:32:52.157Z,10.70
2019-02-05T02:35:21.415Z,11.27
2019-02-05T02:37:50.706Z,10.77
2019-02-05T02:40:20.318Z,10.17
2019-02-05T02:42:50.626Z,10.20
2019-02-05T02:45:19.890Z,10.77
2019-02-05T02:47:50.432Z,10.33
2019-02-05T02:50:21.055Z,10.10
2019-02-05T02:52:51.787Z,10.30
2019-02-05T02:55:20.737Z,10.33
2019-02-05T02:57:49.756Z,10.20
2019-02-05T03:00:20.708Z,10.10
2019-02-05T03:02:51.272Z,10.67
2019-02-05T03:05:22.763Z,10.50
2019-02-05T03:07:52.371Z,10.53
2019-02-05T03:10:24.027Z,9.60
2019-02-05T03:12:53.244Z,10.60
2019-02-05T03:15:22.102Z,10.33
2019-02-05T03:17:52.880Z,9.37
2019-02-05T03:20:21.832Z,9.53
2019-02-05T03:22:51.316Z,10.17
2019-02-05T03:25:22.423Z,9.03
2019-02-05T03:27:53.912Z,8.23
2019-02-05T03:30:24.606Z,9.10
2019-02-05T03:32:55.534Z,8.83
2019-02-05T03:35:24.929Z,8.90
2019-02-05T03:37:54.412Z,9.20
2019-02-05T03:40:25.512Z,9.73
2019-02-05T03:42:54.576Z,8.80
2019-02-05T03:45:24.373Z,8.67
2019-02-05T03:47:55.985Z,8.43
2019-02-05T03:50:26.183Z,8.53
2019-02-05T03:52:57.855Z,8.17
2019-02-05T03:55:29.515Z,8.43
2019-02-05T03:58:01.164Z,9.80
2019-02-05T04:00:32.903Z,7.47
2019-02-05T04:03:04.750Z,8.70
2019-02-05T04:05:34.856Z,9.43
2019-02-05T04:08:03.495Z,8.80
2019-02-05T04:10:33.705Z,9.33
2019-02-05T04:13:05.366Z,9.20
2019-02-05T04:15:37.187Z,8.80
2019-02-05T04:18:08.860Z,8.43
2019-02-05T04:20:40.909Z,8.30
2019-02-05T04:23:12.466Z,10.03
2019-02-05T04:25:40.866Z,9.20
2019-02-05T04:28:10.355Z,9.20
2019-02-05T04:30:42.741Z,9.53
2019-02-05T04:33:13.789Z,9.17
2019-02-05T04:35:43.982Z,7.93
2019-02-05T04:38:15.643Z,8.07
2019-02-05T04:40:47.227Z,7.77
2019-02-05T04:43:18.878Z,8.43
2019-02-05T04:45:48.918Z,8.47
2019-02-05T04:48:20.822Z,8.83
2019-02-05T04:50:52.482Z,7.93
2019-02-05T04:53:24.160Z,8.67
2019-02-05T04:55:55.747Z,8.80
2019-02-05T04:58:26.137Z,7.30
2019-02-05T05:00:58.091Z,8.40
2019-02-05T05:03:29.744Z,8.73
2019-02-05T05:06:01.580Z,7.10
2019-02-05T05:08:33.187Z,7.60
2019-02-05T05:11:02.127Z,8.77
2019-02-05T05:13:31.517Z,9.53
2019-02-05T05:16:00.792Z,8.87
2019-02-05T05:18:29.614Z,8.13
2019-02-05T05:20:58.603Z,10.00
2019-02-05T05:23:27.684Z,9.73
2019-02-05T05:25:56.677Z,8.77
2019-02-05T05:28:25.916Z,8.63
2019-02-05T05:30:55.749Z,8.70
2019-02-05T05:33:25.391Z,8.63
2019-02-05T05:35:54.432Z,8.93
2019-02-05T05:38:23.360Z,9.40
2019-02-05T05:40:52.243Z,9.70
2019-02-05T05:43:21.838Z,10.57
2019-02-05T05:45:50.897Z,10.73
2019-02-05T05:48:19.819Z,10.20
2019-02-05T05:50:48.900Z,10.50
2019-02-05T05:53:17.784Z,10.03
2019-02-05T05:55:47.895Z,10.83
2019-02-05T05:58:23.225Z,10.90
2019-02-05T06:00:47.334Z,11.07
2019-02-05T06:03:22.478Z,10.30
2019-02-05T06:05:51.307Z,11.00
2019-02-05T06:08:20.199Z,10.30
2019-02-05T06:10:48.999Z,12.17
2019-02-05T06:13:17.871Z,12.20
2019-02-05T06:15:46.981Z,12.20
2019-02-05T06:18:16.170Z,13.20
2019-02-05T06:20:45.238Z,11.17
2019-02-05T06:23:14.873Z,13.13
2019-02-05T06:25:43.803Z,14.50
2019-02-05T06:28:12.667Z,14.40
2019-02-05T06:30:44.024Z,13.63
2019-02-05T06:33:18.784Z,13.63
2019-02-05T06:35:48.350Z,13.00
2019-02-05T06:38:17.297Z,14.53
2019-02-05T06:40:49.107Z,15.30
2019-02-05T06:43:18.101Z,16.40
2019-02-05T06:45:48.686Z,16.57
2019-02-05T06:48:18.031Z,15.20
2019-02-05T06:50:48.318Z,16.67
2019-02-05T06:53:17.239Z,17.23
2019-02-05T06:55:46.186Z,17.07
2019-02-05T06:58:15.163Z,17.17
2019-02-05T07:00:44.104Z,17.23
2019-02-05T07:03:13.930Z,17.73
2019-02-05T07:05:42.787Z,17.17
2019-02-05T07:08:11.761Z,17.77
2019-02-05T07:10:40.887Z,19.90
2019-02-05T07:13:10.052Z,18.83
2019-02-05T07:15:38.895Z,17.30
2019-02-05T07:18:08.135Z,17.93
2019-02-05T07:20:37.307Z,18.50
2019-02-05T07:23:06.413Z,18.23
2019-02-05T07:25:35.743Z,17.67
2019-02-05T07:28:05.206Z,18.80
2019-02-05T07:30:34.184Z,18.77
2019-02-05T07:33:03.037Z,19.73
2019-02-05T07:35:33.176Z,19.77
2019-02-05T07:38:02.193Z,20.43
2019-02-05T07:40:31.064Z,20.23
2019-02-05T07:43:00.295Z,20.53
2019-02-05T07:45:33.063Z,20.97
2019-02-05T07:48:01.899Z,22.00
2019-02-05T07:50:30.849Z,18.93
2019-02-05T07:53:00.011Z,19.60
2019-02-05T07:55:29.385Z,19.77
2019-02-05T07:57:58.226Z,20.80
2019-02-05T08:00:29.282Z,21.80
2019-02-05T08:02:58.439Z,20.60
2019-02-05T08:05:29.780Z,20.17
2019-02-05T08:07:59.201Z,20.13
2019-02-05T08:10:28.547Z,22.10
2019-02-05T08:12:57.926Z,21.57
2019-02-05T08:15:29.690Z,22.33
2019-02-05T08:17:58.788Z,22.27
2019-02-05T08:20:29.335Z,21.40
2019-02-05T08:23:01.208Z,23.70
2019-02-05T08:25:30.329Z,22.47
2019-02-05T08:27:59.743Z,22.33
2019-02-05T08:30:31.375Z,20.27
2019-02-05T08:33:01.376Z,22.70
2019-02-05T08:35:31.256Z,23.40
2019-02-05T08:38:00.895Z,22.23
2019-02-05T08:40:30.005Z,25.20
2019-02-05T08:42:59.210Z,23.50
2019-02-05T08:45:31.180Z,21.97
2019-02-05T08:48:00.370Z,23.13
2019-02-05T08:50:31.111Z,23.60
2019-02-05T08:53:00.146Z,22.00
2019-02-05T08:55:30.840Z,22.87
2019-02-05T08:58:02.888Z,23.97
2019-02-05T09:00:34.563Z,23.53
2019-02-05T09:03:03.462Z,21.13
2019-02-05T09:05:33.125Z,22.80
2019-02-05T09:08:03.728Z,23.53
2019-02-05T09:10:34.984Z,24.13
2019-02-05T09:13:05.864Z,23.00
2019-02-05T09:15:35.391Z,22.10
2019-02-05T09:18:05.734Z,22.43
2019-02-05T09:20:34.623Z,20.80
2019-02-05T09:23:03.819Z,23.80
2019-02-05T09:25:32.837Z,20.63
2019-02-05T09:28:01.674Z,23.10
2019-02-05T09:30:34.053Z,23.30
2019-02-05T09:33:05.494Z,22.47
2019-02-05T09:35:34.752Z,22.73
2019-02-05T09:38:04.001Z,22.97
2019-02-05T09:40:33.768Z,24.00
2019-02-05T09:43:03.100Z,23.27
2019-02-05T09:45:32.683Z,22.00
2019-02-05T09:48:02.352Z,22.43
2019-02-05T09:50:43.684Z,23.07
2019-02-05T09:53:02.869Z,22.30
2019-02-05T09:55:31.950Z,21.30
2019-02-05T09:58:01.241Z,22.80
2019-02-05T10:00:33.159Z,22.30
2019-02-05T10:03:02.038Z,22.67
2019-02-05T10:05:33.220Z,21.47
2019-02-05T10:08:03.694Z,17.47
2019-02-05T10:10:32.535Z,16.97
2019-02-05T10:13:01.456Z,16.27
2019-02-05T10:15:32.923Z,16.50
2019-02-05T10:18:02.379Z,15.40
2019-02-05T10:20:31.379Z,16.03
2019-02-05T10:23:02.416Z,17.43
2019-02-05T10:25:31.506Z,17.03
2019-02-05T10:28:00.418Z,17.17
2019-02-05T10:30:31.828Z,18.50
2019-02-05T10:33:03.016Z,19.10
2019-02-05T10:35:32.144Z,17.47
2019-02-05T10:38:01.140Z,19.17
2019-02-05T10:40:30.728Z,19.57
2019-02-05T10:42:59.999Z,19.73
2019-02-05T10:45:29.301Z,18.63
2019-02-05T10:47:58.398Z,19.77
2019-02-05T10:50:27.502Z,19.03
2019-02-05T10:52:57.169Z,18.60
2019-02-05T10:55:26.844Z,19.37
2019-02-05T10:57:56.682Z,18.30
2019-02-05T11:00:28.041Z,19.47
2019-02-05T11:02:58.555Z,19.27
2019-02-05T11:05:29.176Z,19.70
2019-02-05T11:07:58.237Z,20.40
2019-02-05T11:10:27.133Z,20.80
2019-02-05T11:12:56.337Z,19.93
2019-02-05T11:15:27.924Z,17.70
2019-02-05T11:17:57.005Z,19.60
2019-02-05T11:20:27.912Z,19.17
2019-02-05T11:22:56.924Z,21.67
2019-02-05T11:25:26.519Z,20.50
2019-02-05T11:27:55.450Z,21.57
2019-02-05T11:30:30.498Z,20.07
2019-02-05T11:33:00.779Z,20.60
2019-02-05T11:35:31.230Z,19.40
2019-02-05T11:38:03.216Z,19.93
2019-02-05T11:40:34.492Z,20.37
2019-02-05T11:43:04.030Z,19.10
2019-02-05T11:45:33.649Z,21.53
2019-02-05T11:48:05.035Z,21.00
2019-02-05T11:50:34.417Z,18.60
2019-02-05T11:53:03.211Z,19.00
2019-02-05T11:55:33.707Z,18.63
2019-02-05T11:58:02.604Z,19.43
2019-02-05T12:00:33.310Z,18.73
2019-02-05T12:03:02.549Z,20.60
2019-02-05T12:05:31.486Z,19.07
2019-02-05T12:08:00.805Z,19.27
2019-02-05T12:10:29.743Z,21.03
2019-02-05T12:12:58.711Z,23.63
2019-02-05T12:15:27.830Z,22.73
2019-02-05T12:17:56.728Z,22.60
2019-02-05T12:20:27.372Z,20.10
2019-02-05T12:22:56.585Z,20.60
2019-02-05T12:25:25.770Z,20.70
2019-02-05T12:27:55.660Z,21.60
2019-02-05T12:30:28.032Z,20.90
2019-02-05T12:32:57.159Z,22.37
2019-02-05T12:35:26.263Z,20.30
2019-02-05T12:37:55.421Z,18.50
2019-02-05T12:40:25.063Z,20.60
2019-02-05T12:42:54.103Z,19.57
2019-02-05T12:45:25.856Z,20.07
2019-02-05T12:47:55.288Z,20.87
2019-02-05T12:50:27.004Z,20.67
2019-02-05T12:52:56.234Z,19.80
2019-02-05T12:55:25.817Z,18.87
2019-02-05T12:57:55.436Z,20.30
2019-02-05T13:00:27.467Z,19.00
2019-02-05T13:02:57.658Z,19.90
2019-02-05T13:05:29.429Z,20.00
2019-02-05T13:07:58.949Z,18.70
2019-02-05T13:10:30.502Z,18.90
2019-02-05T13:12:59.862Z,21.30
2019-02-05T13:15:28.949Z,21.10
2019-02-05T13:17:58.160Z,18.00
2019-02-05T13:20:29.357Z,17.97
2019-02-05T13:22:59.047Z,17.80
2019-02-05T13:25:31.345Z,18.03
2019-02-05T13:28:00.484Z,18.63
2019-02-05T13:30:32.192Z,19.90
2019-02-05T13:33:01.594Z,18.60
2019-02-05T13:35:31.193Z,19.60
2019-02-05T13:38:00.475Z,18.30
2019-02-05T13:40:30.008Z,19.53
2019-02-05T13:43:01.548Z,18.40
2019-02-05T13:45:33.237Z,17.77
2019-02-05T13:48:04.877Z,19.80
2019-02-05T13:50:34.065Z,18.67
2019-02-05T13:53:03.369Z,18.33
2019-02-05T13:55:35.624Z,18.10
2019-02-05T13:58:07.972Z,17.67
2019-02-05T14:00:39.909Z,22.40
2019-02-05T14:03:10.260Z,16.17
2019-02-05T14:05:39.753Z,18.60
2019-02-05T14:08:09.103Z,19.53
2019-02-05T14:10:46.789Z,18.43
2019-02-05T14:13:15.791Z,19.00
2019-02-05T14:15:47.833Z,20.40
2019-02-05T14:18:18.085Z,19.27
2019-02-05T14:20:48.105Z,17.67
2019-02-05T14:23:17.673Z,17.80
2019-02-05T14:25:49.887Z,17.73
2019-02-05T14:28:24.340Z,18.77
2019-02-05T14:30:55.187Z,18.67
2019-02-05T14:33:24.502Z,19.03
2019-02-05T14:35:57.584Z,18.80
2019-02-05T14:41:35.169Z,20.63
2019-02-05T14:44:02.668Z,20.20
2019-02-05T14:46:31.725Z,19.20
2019-02-05T14:49:01.309Z,19.87
2019-02-05T14:51:30.332Z,19.13
2019-02-05T14:53:59.252Z,19.87
2019-02-05T14:56:28.252Z,21.20
2019-02-05T14:58:57.933Z,21.10
2019-02-05T15:01:27.811Z,22.97
2019-02-05T15:04:27.214Z,20.70
2019-02-05T15:06:49.081Z,23.30
2019-02-05T15:09:18.099Z,22.73
2019-02-05T15:11:47.165Z,21.80
2019-02-05T15:14:16.183Z,22.70
2019-02-05T15:16:45.318Z,24.50
2019-02-05T15:19:14.282Z,24.57
2019-02-05T15:21:43.094Z,23.93
2019-02-05T15:24:11.994Z,22.90
2019-02-05T15:26:40.983Z,22.63
2019-02-05T15:29:09.873Z,22.53
2019-02-05T15:31:39.246Z,22.40
2019-02-05T15:34:09.945Z,25.50
2019-02-05T15:36:40.477Z,24.70
2019-02-05T15:39:12.377Z,21.07
2019-02-05T15:41:42.084Z,29.20
2019-02-05T15:44:11.898Z,24.27
2019-02-05T15:46:40.886Z,22.77
2019-02-05T15:49:09.818Z,23.20
2019-02-05T15:51:39.504Z,21.93
2019-02-05T15:54:09.882Z,23.40
2019-02-05T15:56:39.633Z,22.80
2019-02-05T15:59:10.666Z,22.33
2019-02-05T16:01:39.894Z,22.20
2019-02-05T16:04:09.291Z,22.30
2019-02-05T16:06:38.214Z,24.20
2019-02-05T16:09:09.321Z,22.50
2019-02-05T16:11:39.746Z,24.30
2019-02-05T16:14:09.295Z,26.50
2019-02-05T16:16:40.837Z,24.87
2019-02-05T16:19:10.238Z,25.43
2019-02-05T16:21:40.061Z,25.50
2019-02-05T16:24:09.205Z,24.40
2019-02-05T16:26:38.098Z,26.13
2019-02-05T16:29:07.386Z,25.70
2019-02-05T16:31:36.812Z,23.90
2019-02-05T16:34:06.063Z,24.40
2019-02-05T16:36:36.059Z,24.67
2019-02-05T16:39:07.981Z,25.03
2019-02-05T16:41:38.512Z,27.33
2019-02-05T16:44:07.911Z,24.73
2019-02-05T16:46:36.864Z,24.60
2019-02-05T16:49:08.869Z,26.17
2019-02-05T16:51:39.770Z,25.63
2019-02-05T16:54:08.614Z,27.20
2019-02-05T16:56:37.996Z,26.50
2019-02-05T16:59:07.349Z,25.63
2019-02-05T17:01:36.497Z,24.90
2019-02-05T17:04:07.495Z,26.63
2019-02-05T17:06:36.711Z,24.33
2019-02-05T17:09:08.402Z,25.60
2019-02-05T17:11:38.823Z,25.73
2019-02-05T17:14:07.810Z,25.40
2019-02-05T17:16:36.710Z,23.90
2019-02-05T17:19:05.962Z,24.30
2019-02-05T17:21:38.130Z,23.93
2019-02-05T17:24:07.124Z,24.67
2019-02-05T17:26:36.309Z,23.70
2019-02-05T17:29:05.481Z,23.43
2019-02-05T17:31:36.547Z,23.55
2019-02-05T17:34:05.831Z,25.10
2019-02-05T17:36:34.656Z,24.43
2019-02-05T17:39:08.492Z,23.97
2019-02-05T17:41:37.364Z,24.03
2019-02-05T17:44:07.296Z,23.83
2019-02-05T17:46:37.647Z,25.20
2019-02-05T17:49:07.016Z,24.50
2019-02-05T17:51:35.870Z,24.90
2019-02-05T17:54:05.883Z,24.50
2019-02-05T17:56:34.853Z,25.97
2019-02-05T17:59:04.502Z,25.50
2019-02-05T18:01:36.606Z,23.47
2019-02-05T18:04:07.247Z,24.00
2019-02-05T18:06:36.335Z,32.37
2019-02-05T18:09:11.018Z,32.83
2019-02-05T18:11:40.022Z,25.77
2019-02-05T18:14:09.194Z,24.90
2019-02-05T18:16:38.014Z,25.53
2019-02-05T18:19:07.061Z,23.77
2019-02-05T18:21:35.987Z,24.50
2019-02-05T18:24:09.238Z,22.67
2019-02-05T18:26:39.194Z,23.10
2019-02-05T18:29:08.375Z,22.40
2019-02-05T18:31:57.897Z,24.97
2019-02-05T18:34:28.466Z,21.60
2019-02-05T18:36:57.822Z,20.73
2019-02-05T18:39:26.990Z,21.07
2019-02-05T18:41:56.015Z,23.17
2019-02-05T18:44:25.711Z,24.33
2019-02-05T18:46:54.933Z,23.50
2019-02-05T18:49:23.758Z,23.47
2019-02-05T18:51:52.900Z,22.53
2019-02-05T18:54:22.047Z,23.23
2019-02-05T18:56:50.877Z,21.23
2019-02-05T18:59:19.915Z,19.40
2019-02-05T19:01:49.140Z,21.37
2019-02-05T19:04:18.473Z,20.37
2019-02-05T19:06:47.338Z,20.50
2019-02-05T19:09:17.582Z,20.20
2019-02-05T19:11:48.901Z,18.27
2019-02-05T19:14:23.170Z,18.17
2019-02-05T19:16:51.573Z,17.57
2019-02-05T19:19:21.711Z,17.73
2019-02-05T19:21:50.746Z,19.93
2019-02-05T19:24:21.309Z,20.03
2019-02-05T19:26:50.520Z,19.70
2019-02-05T19:29:20.044Z,19.00
2019-02-05T19:31:52.261Z,17.87
2019-02-05T19:34:21.313Z,17.03
2019-02-05T19:36:50.493Z,18.20
2019-02-05T19:39:19.542Z,18.50
2019-02-05T19:41:48.446Z,20.53
2019-02-05T19:44:17.682Z,20.17
2019-02-05T19:46:48.600Z,19.43
2019-02-05T19:49:21.711Z,18.57
2019-02-05T19:51:51.081Z,15.00
2019-02-05T19:54:20.737Z,16.20
2019-02-05T19:56:49.639Z,16.30
2019-02-05T19:59:19.384Z,15.03
2019-02-05T20:01:49.446Z,15.70
2019-02-05T20:04:18.767Z,18.80
2019-02-05T20:06:47.757Z,18.67
2019-02-05T20:09:16.844Z,18.53
2019-02-05T20:11:45.965Z,18.57
2019-02-05T20:14:16.884Z,19.33
2019-02-05T20:16:46.083Z,19.20
2019-02-05T20:19:15.113Z,21.40
2019-02-05T20:21:44.583Z,19.90
2019-02-05T20:24:13.720Z,21.30
2019-02-05T20:26:42.739Z,21.50
2019-02-05T20:29:11.861Z,21.50
2019-02-05T20:31:41.137Z,22.73
2019-02-05T20:34:11.880Z,20.70
2019-02-05T20:36:41.435Z,23.57
2019-02-05T20:39:12.792Z,22.80
2019-02-05T20:41:41.725Z,24.87
2019-02-05T20:44:11.083Z,23.67
2019-02-05T20:46:40.232Z,24.67
2019-02-05T20:49:10.839Z,23.77
2019-02-05T20:52:19.767Z,23.37
2019-02-05T20:54:48.715Z,24.13
2019-02-05T20:57:22.227Z,24.23
2019-02-05T20:59:51.761Z,26.17
2019-02-05T21:02:20.906Z,24.47
2019-02-05T21:04:53.288Z,25.00
2019-02-05T21:07:23.369Z,24.23
2019-02-05T21:09:53.579Z,26.80
2019-02-05T21:12:22.702Z,25.27
2019-02-05T21:14:52.298Z,24.10
2019-02-05T21:17:22.544Z,25.73
2019-02-05T21:19:51.541Z,26.23
2019-02-05T21:22:25.807Z,27.53
2019-02-05T21:24:54.947Z,27.40
2019-02-05T21:27:29.540Z,29.83
2019-02-05T21:30:05.074Z,29.70
2019-02-05T21:32:31.852Z,32.43
2019-02-05T21:35:00.863Z,27.63
2019-02-05T21:37:29.788Z,27.50
2019-02-05T21:40:02.385Z,27.80
2019-02-05T21:42:29.630Z,27.50
2019-02-05T21:45:00.044Z,28.10
2019-02-05T21:47:29.042Z,28.40
2019-02-05T21:49:58.734Z,29.53
2019-02-05T21:52:28.983Z,30.30
2019-02-05T21:55:00.359Z,28.97
2019-02-05T21:57:30.795Z,27.23
2019-02-05T21:59:59.814Z,28.50
2019-02-05T22:02:28.858Z,25.80
2019-02-05T22:04:58.382Z,28.53
2019-02-05T22:07:27.395Z,28.80
2019-02-05T22:09:59.452Z,27.23
2019-02-05T22:12:31.550Z,27.40
2019-02-05T22:15:00.491Z,27.40
2019-02-05T22:17:29.316Z,26.42
2019-02-05T22:19:58.424Z,29.10
2019-02-05T22:22:27.403Z,29.30
2019-02-05T22:24:56.584Z,28.53
2019-02-05T22:27:25.662Z,27.70
2019-02-05T22:29:54.771Z,30.20
2019-02-05T22:32:23.897Z,28.53
2019-02-05T22:34:52.964Z,28.90
2019-02-05T22:37:21.943Z,31.73
2019-02-05T22:39:50.893Z,32.33
2019-02-05T22:42:19.778Z,31.30
2019-02-05T22:44:48.573Z,30.07
2019-02-05T22:47:18.312Z,32.10
2019-02-05T22:49:47.297Z,29.90
2019-02-05T22:52:16.207Z,31.50
2019-02-05T22:54:45.020Z,30.27
2019-02-05T22:57:13.994Z,29.17
2019-02-05T22:59:43.069Z,31.07
2019-02-05T23:02:12.547Z,30.47
2019-02-05T23:04:50.414Z,33.87
2019-02-05T23:07:14.482Z,30.30
2019-02-05T23:09:46.175Z,30.50
2019-02-05T23:12:17.521Z,27.80
2019-02-05T23:14:49.542Z,34.87
2019-02-05T23:17:18.490Z,33.30
2019-02-05T23:19:47.735Z,30.30
2019-02-05T23:22:17.131Z,31.13
2019-02-05T23:24:46.598Z,31.10
2019-02-05T23:27:15.696Z,30.10
2019-02-05T23:29:45.249Z,31.20
2019-02-05T23:32:14.302Z,29.77
2019-02-05T23:34:43.458Z,30.47
2019-02-05T23:37:12.383Z,28.37
2019-02-05T23:39:41.498Z,28.80
2019-02-05T23:42:14.049Z,26.00
2019-02-05T23:44:43.383Z,26.80
2019-02-05T23:47:12.497Z,26.20
2019-02-05T23:49:41.494Z,26.57
2019-02-05T23:52:10.395Z,26.67
2019-02-05T23:54:39.365Z,27.73
2019-02-05T23:57:09.985Z,27.03
2019-02-05T23:59:38.867Z,26.13
